createdAt,value
2022-08-23T00:00:19.905Z,30.63
2022-08-23T00:02:48.590Z,26.92
2022-08-23T00:05:20.398Z,38.55
2022-08-23T00:07:50.161Z,29.10
2022-08-23T00:10:18.925Z,23.27
2022-08-23T00:12:48.608Z,29.55
2022-08-23T00:15:21.561Z,24.58
2022-08-23T00:17:50.553Z,35.10
2022-08-23T00:20:20.912Z,29.73
2022-08-23T00:22:50.698Z,37.63
2022-08-23T00:25:19.514Z,28.05
2022-08-23T00:27:48.158Z,33.47
2022-08-23T00:30:17.847Z,33.40
2022-08-23T00:32:46.764Z,25.08
2022-08-23T00:35:22.219Z,23.02
2022-08-23T00:38:33.422Z,35.17
2022-08-23T00:40:51.197Z,43.95
2022-08-23T00:43:43.104Z,43.60
2022-08-23T00:46:36.444Z,44.00
2022-08-23T00:49:09.158Z,28.38
2022-08-23T00:51:52.333Z,41.70
2022-08-23T00:54:26.519Z,52.72
2022-08-23T00:56:55.767Z,38.53
2022-08-23T00:59:24.859Z,38.88
2022-08-23T01:01:53.656Z,36.85
2022-08-23T01:04:22.455Z,31.98
2022-08-23T01:06:55.477Z,37.22
2022-08-23T01:09:26.088Z,35.30
2022-08-23T01:12:00.942Z,30.20
2022-08-23T01:14:33.176Z,33.63
2022-08-23T01:17:05.830Z,24.30
2022-08-23T01:19:36.967Z,29.00
2022-08-23T01:22:11.043Z,32.20
2022-08-23T01:25:06.078Z,50.88
2022-08-23T01:27:32.131Z,26.75
2022-08-23T01:30:02.029Z,26.48
2022-08-23T01:32:32.568Z,33.58
2022-08-23T01:35:01.598Z,35.55
2022-08-23T01:37:30.098Z,25.63
2022-08-23T01:40:01.441Z,34.53
2022-08-23T01:42:30.113Z,32.42
2022-08-23T01:44:59.730Z,28.20
2022-08-23T01:47:29.605Z,30.02
2022-08-23T01:49:58.608Z,29.85
2022-08-23T01:52:28.259Z,38.17
2022-08-23T01:54:57.387Z,35.27
2022-08-23T01:57:27.521Z,34.47
2022-08-23T01:59:56.253Z,37.28
2022-08-23T02:02:25.650Z,33.53
2022-08-23T02:04:54.322Z,35.92
2022-08-23T02:07:27.614Z,42.15
2022-08-23T02:09:57.420Z,42.30
2022-08-23T02:12:27.783Z,33.17
2022-08-23T02:15:06.685Z,44.30
2022-08-23T02:17:36.450Z,30.02
2022-08-23T02:20:06.673Z,30.45
2022-08-23T02:22:35.100Z,31.02
2022-08-23T02:25:04.438Z,40.60
2022-08-23T02:27:34.639Z,34.90
2022-08-23T02:30:03.404Z,32.05
2022-08-23T02:35:05.415Z,32.72
2022-08-23T02:37:35.834Z,29.95
2022-08-23T02:40:06.740Z,27.83
2022-08-23T02:42:37.289Z,31.13
2022-08-23T02:45:08.728Z,35.65
2022-08-23T02:47:43.016Z,30.90
2022-08-23T02:50:20.194Z,30.23
2022-08-23T02:52:48.682Z,27.17
2022-08-23T02:55:17.428Z,30.23
2022-08-23T02:57:47.562Z,28.92
2022-08-23T03:02:46.500Z,25.77
2022-08-23T03:05:15.914Z,28.40
2022-08-23T03:07:45.444Z,23.07
2022-08-23T03:10:16.279Z,26.50
2022-08-23T03:12:51.914Z,22.88
2022-08-23T03:15:21.073Z,24.50
2022-08-23T03:17:50.169Z,21.17
2022-08-23T03:20:19.483Z,26.25
2022-08-23T03:22:54.706Z,25.23
2022-08-23T03:25:26.193Z,22.15
2022-08-23T03:28:06.653Z,26.45
2022-08-23T03:30:37.917Z,22.08
2022-08-23T03:33:07.919Z,23.65
2022-08-23T03:35:36.823Z,24.55
2022-08-23T03:38:06.263Z,17.40
2022-08-23T03:40:36.445Z,21.98
2022-08-23T03:43:07.226Z,17.53
2022-08-23T03:45:36.307Z,24.42
2022-08-23T03:48:05.933Z,19.05
2022-08-23T03:50:36.407Z,27.38
2022-08-23T03:53:05.256Z,27.65
2022-08-23T03:55:33.944Z,26.02
2022-08-23T03:58:13.060Z,23.70
2022-08-23T04:00:41.907Z,26.60
2022-08-23T04:03:10.808Z,30.05
2022-08-23T04:05:55.871Z,35.70
2022-08-23T04:08:33.693Z,25.80
2022-08-23T04:11:04.496Z,24.87
2022-08-23T04:13:37.454Z,28.80
2022-08-23T04:16:07.259Z,20.75
2022-08-23T04:18:36.735Z,32.55
2022-08-23T04:21:11.144Z,21.50
2022-08-23T04:23:40.757Z,23.50
2022-08-23T04:26:09.952Z,23.07
2022-08-23T04:28:40.862Z,24.70
2022-08-23T04:33:40.675Z,20.58
2022-08-23T04:36:11.934Z,21.48
2022-08-23T04:38:40.740Z,19.75
2022-08-23T04:41:29.233Z,26.10
2022-08-23T04:44:02.898Z,23.02
2022-08-23T04:46:32.716Z,40.10
2022-08-23T04:49:03.894Z,19.67
2022-08-23T04:51:32.748Z,25.58
2022-08-23T04:54:01.545Z,29.25
2022-08-23T04:56:43.541Z,30.40
2022-08-23T04:59:14.871Z,24.17
2022-08-23T05:01:46.118Z,21.55
2022-08-23T05:04:15.736Z,19.25
2022-08-23T05:06:45.961Z,24.63
2022-08-23T05:09:18.525Z,17.75
2022-08-23T05:11:50.049Z,22.50
2022-08-23T05:14:21.102Z,22.43
2022-08-23T05:16:49.566Z,22.70
2022-08-23T05:19:18.596Z,16.83
2022-08-23T05:21:49.967Z,21.42
2022-08-23T05:24:22.216Z,23.17
2022-08-23T05:26:51.106Z,18.63
2022-08-23T05:29:21.651Z,18.40
2022-08-23T05:31:52.246Z,18.67
2022-08-23T05:34:23.526Z,20.58
2022-08-23T05:36:56.338Z,21.35
2022-08-23T05:39:37.101Z,25.58
2022-08-23T05:42:11.744Z,22.77
2022-08-23T05:44:42.329Z,20.17
2022-08-23T05:47:15.576Z,15.27
2022-08-23T05:49:57.370Z,17.42
2022-08-23T05:52:27.593Z,13.13
2022-08-23T05:54:56.531Z,13.33
2022-08-23T05:57:47.987Z,12.43
2022-08-23T06:00:18.231Z,16.65
2022-08-23T06:02:55.160Z,16.35
2022-08-23T06:05:25.508Z,25.83
2022-08-23T06:07:54.048Z,18.48
2022-08-23T06:10:26.151Z,11.45
2022-08-23T06:13:10.563Z,12.73
2022-08-23T06:15:45.673Z,9.50
2022-08-23T06:18:14.569Z,15.07
2022-08-23T06:20:44.207Z,16.42
2022-08-23T06:23:19.459Z,14.90
2022-08-23T06:25:47.742Z,14.18
2022-08-23T06:30:49.880Z,14.05
2022-08-23T06:33:28.917Z,15.55
2022-08-23T06:36:17.490Z,22.58
2022-08-23T06:39:01.194Z,17.00
2022-08-23T06:41:49.796Z,14.25
2022-08-23T06:44:30.032Z,21.52
2022-08-23T06:49:58.337Z,22.55
2022-08-23T06:52:48.650Z,17.92
2022-08-23T06:55:41.678Z,19.33
2022-08-23T06:58:36.173Z,20.23
2022-08-23T07:01:49.485Z,19.40
2022-08-23T07:04:40.922Z,15.85
2022-08-23T07:07:16.675Z,20.75
2022-08-23T07:09:45.468Z,17.70
2022-08-23T07:12:14.263Z,19.58
2022-08-23T07:14:44.881Z,22.08
2022-08-23T07:17:14.664Z,15.00
2022-08-23T07:19:45.625Z,16.27
2022-08-23T07:22:15.572Z,23.50
2022-08-23T07:24:44.602Z,23.08
2022-08-23T07:27:13.486Z,14.38
2022-08-23T07:29:49.288Z,16.10
2022-08-23T07:32:18.620Z,18.48
2022-08-23T07:34:49.046Z,17.33
2022-08-23T07:37:18.884Z,19.38
2022-08-23T07:39:47.749Z,26.20
2022-08-23T07:42:23.891Z,15.55
2022-08-23T07:44:57.691Z,16.17
2022-08-23T07:47:30.502Z,16.58
2022-08-23T07:50:02.716Z,16.88
2022-08-23T07:52:33.768Z,25.02
2022-08-23T07:55:02.624Z,21.92
2022-08-23T07:57:52.612Z,21.02
2022-08-23T08:00:48.153Z,23.33
2022-08-23T08:03:42.090Z,22.50
2022-08-23T08:06:32.442Z,24.02
2022-08-23T08:09:01.592Z,19.00
2022-08-23T08:11:35.162Z,19.08
2022-08-23T08:14:07.470Z,20.27
2022-08-23T08:16:39.416Z,26.73
2022-08-23T08:19:09.894Z,19.23
2022-08-23T08:22:04.649Z,23.15
2022-08-23T08:24:53.403Z,26.10
2022-08-23T08:27:22.637Z,22.70
2022-08-23T08:29:51.522Z,21.95
2022-08-23T08:32:20.619Z,20.65
2022-08-23T08:34:48.981Z,24.85
2022-08-23T08:37:19.186Z,23.65
2022-08-23T08:39:48.082Z,26.75
2022-08-23T08:42:42.584Z,26.05
2022-08-23T08:45:14.751Z,26.88
2022-08-23T08:47:48.291Z,24.08
2022-08-23T08:50:24.250Z,23.70
2022-08-23T08:53:02.456Z,24.95
2022-08-23T08:55:51.363Z,22.55
2022-08-23T08:58:26.694Z,24.50
2022-08-23T09:00:56.658Z,22.23
2022-08-23T09:05:59.145Z,27.75
2022-08-23T09:08:42.446Z,20.00
2022-08-23T09:11:20.699Z,23.90
2022-08-23T09:14:10.477Z,33.25
2022-08-23T09:16:49.507Z,30.42
2022-08-23T09:19:19.932Z,30.42
2022-08-23T09:21:55.403Z,33.63
2022-08-23T09:24:27.568Z,30.55
2022-08-23T09:27:07.984Z,22.77
2022-08-23T09:29:39.028Z,28.25
2022-08-23T09:32:26.959Z,33.88
2022-08-23T09:35:08.002Z,22.40
2022-08-23T09:37:49.969Z,26.88
2022-08-23T09:40:28.156Z,27.50
2022-08-23T09:43:08.757Z,22.15
2022-08-23T09:45:40.725Z,22.27
2022-08-23T09:48:14.963Z,24.42
2022-08-23T09:50:54.683Z,26.27
2022-08-23T09:53:27.290Z,36.35
2022-08-23T09:55:59.181Z,21.15
2022-08-23T09:58:31.980Z,27.52
2022-08-23T10:01:13.712Z,27.80
2022-08-23T10:03:46.353Z,35.35
2022-08-23T10:06:32.186Z,28.42
2022-08-23T10:09:07.761Z,29.85
2022-08-23T10:11:41.800Z,31.42
2022-08-23T10:14:15.897Z,26.75
2022-08-23T10:16:57.282Z,20.70
2022-08-23T10:19:30.812Z,27.95
2022-08-23T10:22:03.941Z,35.25
2022-08-23T10:24:39.728Z,26.42
2022-08-23T10:27:49.857Z,24.70
2022-08-23T10:30:20.842Z,24.65
2022-08-23T10:33:03.163Z,31.77
2022-08-23T10:35:38.887Z,27.70
2022-08-23T10:38:34.315Z,29.13
2022-08-23T10:41:14.213Z,30.05
2022-08-23T10:43:50.497Z,31.55
2022-08-23T10:46:21.122Z,41.90
2022-08-23T10:48:54.022Z,28.20
2022-08-23T10:51:31.804Z,31.23
2022-08-23T10:54:06.445Z,34.10
2022-08-23T10:56:42.914Z,22.65
2022-08-23T10:59:17.850Z,22.05
2022-08-23T11:01:54.442Z,30.92
2022-08-23T11:04:30.436Z,24.08
2022-08-23T11:07:17.541Z,30.85
2022-08-23T11:09:54.981Z,29.38
2022-08-23T11:12:29.916Z,28.70
2022-08-23T11:15:36.929Z,30.80
2022-08-23T11:18:40.752Z,31.20
2022-08-23T11:21:13.810Z,28.02
2022-08-23T11:23:56.046Z,36.97
2022-08-23T11:27:07.275Z,30.52
2022-08-23T11:29:43.448Z,27.67
2022-08-23T11:32:44.640Z,27.05
2022-08-23T11:35:36.928Z,38.22
2022-08-23T11:38:10.734Z,38.83
2022-08-23T11:41:13.398Z,35.70
2022-08-23T11:43:45.497Z,31.52
2022-08-23T11:46:31.307Z,31.42
2022-08-23T11:49:42.561Z,32.70
2022-08-23T11:52:29.870Z,36.55
2022-08-23T11:55:15.224Z,41.75
2022-08-23T11:57:56.194Z,45.78
2022-08-23T12:00:29.171Z,39.17
2022-08-23T12:03:03.115Z,38.03
2022-08-23T12:05:45.423Z,45.65
2022-08-23T12:08:49.288Z,36.25
2022-08-23T12:11:20.628Z,49.80
2022-08-23T12:14:01.720Z,44.95
2022-08-23T12:16:49.842Z,34.78
2022-08-23T12:19:31.280Z,39.80
2022-08-23T12:22:07.724Z,36.92
2022-08-23T12:24:53.480Z,43.60
2022-08-23T12:27:30.140Z,40.00
2022-08-23T12:30:02.167Z,40.78
2022-08-23T12:32:44.289Z,42.67
2022-08-23T12:35:28.435Z,35.75
2022-08-23T12:38:01.804Z,49.70
2022-08-23T12:40:33.678Z,41.53
2022-08-23T12:43:17.719Z,51.97
2022-08-23T12:45:53.845Z,40.88
2022-08-23T12:48:33.919Z,49.83
2022-08-23T12:51:13.742Z,45.13
2022-08-23T12:53:45.700Z,33.67
2022-08-23T12:56:39.575Z,47.92
2022-08-23T12:59:36.522Z,44.63
2022-08-23T13:02:09.787Z,38.13
2022-08-23T13:04:40.644Z,44.33
2022-08-23T13:07:12.942Z,43.60
2022-08-23T13:09:53.978Z,29.73
2022-08-23T13:12:25.498Z,37.42
2022-08-23T13:15:01.478Z,36.58
2022-08-23T13:17:39.979Z,46.53
2022-08-23T13:20:21.809Z,46.65
2022-08-23T13:23:00.686Z,43.80
2022-08-23T13:26:27.664Z,35.25
2022-08-23T13:29:26.517Z,51.55
2022-08-23T13:32:30.632Z,36.08
2022-08-23T13:35:40.666Z,33.53
2022-08-23T13:38:39.320Z,43.10
2022-08-23T13:41:38.695Z,52.15
2022-08-23T13:44:09.283Z,65.70
2022-08-23T13:46:46.083Z,42.28
2022-08-23T13:49:18.150Z,53.50
2022-08-23T13:52:41.308Z,45.60
2022-08-23T13:54:56.599Z,62.05
2022-08-23T13:57:30.090Z,64.60
2022-08-23T14:00:00.073Z,53.63
2022-08-23T14:02:30.365Z,55.40
2022-08-23T14:04:59.180Z,56.40
2022-08-23T14:07:27.581Z,51.97
2022-08-23T14:09:57.351Z,48.95
2022-08-23T14:12:33.447Z,56.63
2022-08-23T14:15:03.978Z,56.35
2022-08-23T14:17:36.326Z,66.28
2022-08-23T14:22:56.054Z,61.83
2022-08-23T14:25:24.877Z,53.80
2022-08-23T14:27:55.066Z,58.38
2022-08-23T14:30:30.060Z,64.43
2022-08-23T14:32:59.148Z,66.50
2022-08-23T14:35:28.523Z,55.75
2022-08-23T14:38:05.024Z,51.13
2022-08-23T14:40:34.453Z,57.30
2022-08-23T14:43:06.066Z,59.35
2022-08-23T14:45:34.786Z,60.72
2022-08-23T14:48:03.858Z,61.50
2022-08-23T14:50:33.029Z,60.80
2022-08-23T14:53:04.238Z,64.10
2022-08-23T14:55:32.893Z,78.35
2022-08-23T14:58:01.692Z,37.75
2022-08-23T15:00:32.219Z,36.35
2022-08-23T15:03:01.245Z,31.65
2022-08-23T15:05:30.935Z,27.65
2022-08-23T15:07:59.684Z,24.05
2022-08-23T15:13:27.052Z,20.98
2022-08-23T15:16:00.132Z,22.55
2022-08-23T15:18:29.346Z,25.38
2022-08-23T15:20:58.043Z,22.90
2022-08-23T15:23:26.939Z,25.50
2022-08-23T15:25:56.705Z,19.85
2022-08-23T15:28:26.317Z,19.77
2022-08-23T15:30:55.270Z,20.53
2022-08-23T15:33:26.825Z,26.05
2022-08-23T15:35:55.934Z,28.02
2022-08-23T15:38:26.511Z,21.17
2022-08-23T15:40:55.717Z,25.98
2022-08-23T15:43:33.905Z,17.58
2022-08-23T15:46:06.122Z,15.82
2022-08-23T15:48:38.897Z,22.98
2022-08-23T15:51:07.809Z,13.80
2022-08-23T15:53:39.337Z,17.35
2022-08-23T15:56:11.027Z,12.77
2022-08-23T15:58:40.327Z,20.70
2022-08-23T16:01:09.863Z,17.95
2022-08-23T16:03:42.332Z,23.52
2022-08-23T16:06:12.606Z,19.70
2022-08-23T16:08:43.854Z,18.33
2022-08-23T16:11:13.333Z,17.20
2022-08-23T16:13:42.827Z,14.88
2022-08-23T16:16:17.733Z,21.75
2022-08-23T16:18:48.110Z,18.00
2022-08-23T16:21:17.497Z,17.13
2022-08-23T16:23:46.347Z,15.33
2022-08-23T16:26:17.818Z,18.70
2022-08-23T16:28:52.731Z,20.00
2022-08-23T16:31:21.772Z,10.63
2022-08-23T16:34:09.431Z,11.80
2022-08-23T16:36:38.622Z,15.43
2022-08-23T16:39:07.863Z,20.63
2022-08-23T16:41:36.522Z,16.58
2022-08-23T16:44:05.567Z,22.65
2022-08-23T16:46:34.290Z,18.50
2022-08-23T16:49:03.038Z,23.55
2022-08-23T16:51:33.130Z,17.55
2022-08-23T16:54:02.778Z,13.77
2022-08-23T16:56:31.891Z,19.42
2022-08-23T16:59:00.880Z,11.68
2022-08-23T17:01:30.079Z,17.90
2022-08-23T17:03:58.986Z,19.17
2022-08-23T17:06:27.724Z,11.93
2022-08-23T17:08:57.926Z,17.55
2022-08-23T17:14:05.358Z,22.85
2022-08-23T17:16:35.232Z,10.70
2022-08-23T17:19:04.012Z,16.05
2022-08-23T17:21:35.401Z,11.93
2022-08-23T17:24:06.311Z,14.82
2022-08-23T17:26:35.262Z,19.67
2022-08-23T17:29:04.870Z,16.55
2022-08-23T17:31:33.372Z,16.83
2022-08-23T17:34:04.079Z,14.97
2022-08-23T17:36:41.064Z,18.50
2022-08-23T17:39:14.313Z,14.05
2022-08-23T17:41:45.364Z,15.90
2022-08-23T17:44:15.303Z,16.65
2022-08-23T17:46:45.247Z,17.23
2022-08-23T17:51:43.374Z,17.65
2022-08-23T17:54:16.417Z,13.90
2022-08-23T17:56:49.948Z,16.67
2022-08-23T17:59:19.949Z,17.33
2022-08-23T18:01:48.438Z,19.65
2022-08-23T18:04:18.852Z,17.15
2022-08-23T18:06:48.580Z,15.80
2022-08-23T18:09:19.814Z,16.88
2022-08-23T18:11:49.008Z,13.60
2022-08-23T18:14:18.272Z,14.10
2022-08-23T18:16:47.068Z,20.30
2022-08-23T18:19:16.368Z,16.77
2022-08-23T18:21:46.732Z,15.05
2022-08-23T18:24:15.537Z,19.70
2022-08-23T18:27:03.751Z,15.77
2022-08-23T18:29:34.693Z,17.05
2022-08-23T18:32:03.897Z,16.17
2022-08-23T18:34:32.213Z,17.30
2022-08-23T18:37:00.979Z,17.98
2022-08-23T18:39:32.206Z,20.15
2022-08-23T18:42:03.587Z,26.38
2022-08-23T18:44:32.647Z,12.77
2022-08-23T18:47:03.032Z,20.35
2022-08-23T18:49:33.721Z,19.98
2022-08-23T18:52:02.998Z,10.85
2022-08-23T18:54:33.917Z,16.15
2022-08-23T18:57:04.911Z,22.05
2022-08-23T18:59:33.751Z,14.20
2022-08-23T19:02:02.634Z,11.82
2022-08-23T19:04:31.413Z,14.85
2022-08-23T19:07:00.120Z,14.70
2022-08-23T19:09:28.925Z,22.65
2022-08-23T19:12:00.338Z,21.30
2022-08-23T19:14:33.378Z,22.65
2022-08-23T19:17:03.654Z,11.02
2022-08-23T19:19:33.822Z,15.35
2022-08-23T19:22:03.548Z,14.52
2022-08-23T19:24:33.273Z,17.70
2022-08-23T19:27:02.158Z,20.20
2022-08-23T19:29:33.182Z,12.70
2022-08-23T19:32:02.944Z,12.68
2022-08-23T19:34:31.395Z,14.87
2022-08-23T19:37:01.417Z,19.15
2022-08-23T19:39:30.944Z,13.55
2022-08-23T19:41:59.998Z,12.70
2022-08-23T19:44:28.853Z,14.02
2022-08-23T19:46:58.977Z,13.07
2022-08-23T19:49:27.482Z,14.68
2022-08-23T19:51:56.550Z,16.05
2022-08-23T19:54:26.067Z,14.43
2022-08-23T19:56:57.714Z,8.90
2022-08-23T19:59:29.591Z,17.75
2022-08-23T20:02:00.455Z,12.40
2022-08-23T20:04:31.222Z,15.07
2022-08-23T20:07:02.335Z,11.85
2022-08-23T20:09:32.776Z,12.25
2022-08-23T20:14:33.220Z,12.75
2022-08-23T20:17:06.673Z,21.48
2022-08-23T20:19:36.326Z,13.15
2022-08-23T20:22:23.237Z,13.30
2022-08-23T20:24:52.896Z,19.75
2022-08-23T20:27:29.324Z,12.32
2022-08-23T20:30:00.459Z,16.92
2022-08-23T20:32:31.386Z,13.82
2022-08-23T20:35:00.579Z,7.90
2022-08-23T20:37:29.454Z,12.65
2022-08-23T20:39:58.635Z,10.07
2022-08-23T20:42:27.977Z,13.45
2022-08-23T20:44:56.873Z,14.02
2022-08-23T20:47:25.612Z,16.45
2022-08-23T20:49:55.417Z,12.90
2022-08-23T20:52:24.160Z,12.77
2022-08-23T20:54:53.575Z,11.70
2022-08-23T20:57:22.353Z,15.73
2022-08-23T20:59:51.203Z,25.38
2022-08-23T21:02:19.923Z,10.40
2022-08-23T21:04:48.445Z,18.17
2022-08-23T21:07:18.702Z,12.55
2022-08-23T21:09:48.159Z,12.85
2022-08-23T21:12:16.847Z,10.25
2022-08-23T21:14:45.599Z,11.07
2022-08-23T21:17:14.180Z,12.88
2022-08-23T21:19:44.265Z,11.88
2022-08-23T21:22:12.929Z,11.68
2022-08-23T21:24:43.008Z,11.65
2022-08-23T21:27:11.635Z,10.63
2022-08-23T21:29:40.671Z,18.42
2022-08-23T21:32:09.436Z,15.85
2022-08-23T21:34:37.774Z,12.73
2022-08-23T21:37:06.665Z,17.75
2022-08-23T21:39:35.326Z,15.52
2022-08-23T21:42:14.790Z,15.23
2022-08-23T21:44:45.119Z,12.30
2022-08-23T21:47:15.009Z,14.68
2022-08-23T21:49:43.629Z,12.07
2022-08-23T21:52:12.326Z,18.27
2022-08-23T21:54:43.555Z,14.75
2022-08-23T21:57:13.915Z,8.77
2022-08-23T21:59:42.587Z,23.35
2022-08-23T22:02:11.257Z,25.17
2022-08-23T22:04:39.724Z,11.52
2022-08-23T22:07:08.439Z,13.73
2022-08-23T22:09:37.570Z,11.02
2022-08-23T22:12:07.637Z,14.25
2022-08-23T22:14:37.956Z,13.85
2022-08-23T22:17:06.753Z,16.98
2022-08-23T22:19:35.089Z,10.25
2022-08-23T22:22:03.784Z,12.02
2022-08-23T22:24:32.419Z,16.55
2022-08-23T22:27:01.172Z,27.23
2022-08-23T22:29:30.081Z,33.17
2022-08-23T22:32:02.161Z,43.55
2022-08-23T22:34:30.783Z,26.63
2022-08-23T22:36:59.520Z,20.27
2022-08-23T22:39:28.296Z,22.25
2022-08-23T22:41:57.198Z,20.15
2022-08-23T22:44:25.889Z,17.20
2022-08-23T22:46:54.459Z,19.80
2022-08-23T22:49:24.682Z,12.23
2022-08-23T22:51:55.435Z,19.25
2022-08-23T22:54:24.785Z,14.35
2022-08-23T22:56:54.176Z,14.48
2022-08-23T22:59:25.801Z,18.40
2022-08-23T23:01:58.789Z,15.02
2022-08-23T23:04:29.833Z,15.73
2022-08-23T23:09:27.746Z,10.45
2022-08-23T23:11:56.871Z,15.10
2022-08-23T23:14:25.645Z,17.48
2022-08-23T23:16:54.327Z,13.27
2022-08-23T23:19:40.877Z,12.73
2022-08-23T23:22:11.089Z,13.20
2022-08-23T23:24:40.921Z,16.55
2022-08-23T23:27:10.040Z,12.23
2022-08-23T23:29:38.998Z,13.15
2022-08-23T23:32:08.061Z,10.73
2022-08-23T23:34:38.055Z,16.10
2022-08-23T23:39:36.705Z,18.63
2022-08-23T23:42:05.527Z,10.52
2022-08-23T23:44:34.264Z,15.43
2022-08-23T23:47:03.604Z,13.43
2022-08-23T23:49:33.664Z,11.30
2022-08-23T23:52:03.616Z,17.42
2022-08-23T23:54:34.001Z,11.65
2022-08-23T23:57:04.739Z,10.55
2022-08-23T23:59:33.611Z,14.77
